sensor_id;sensor_type;location;lat;lon;timestamp;P1;durP1;ratioP1;P2;durP2;ratioP2
10509;SDS011;5303;53.266;10.410;2023-05-07T00:00:45;9.97;;;7.17;;
10509;SDS011;5303;53.266;10.410;2023-05-07T00:03:11;9.40;;;7.27;;
10509;SDS011;5303;53.266;10.410;2023-05-07T00:05:36;8.07;;;7.03;;
10509;SDS011;5303;53.266;10.410;2023-05-07T00:08:02;9.00;;;7.27;;
10509;SDS011;5303;53.266;10.410;2023-05-07T00:10:28;7.93;;;7.13;;
10509;SDS011;5303;53.266;10.410;2023-05-07T00:12:53;10.33;;;6.63;;
10509;SDS011;5303;53.266;10.410;2023-05-07T00:15:19;9.17;;;6.87;;
10509;SDS011;5303;53.266;10.410;2023-05-07T00:17:44;7.97;;;6.67;;
10509;SDS011;5303;53.266;10.410;2023-05-07T00:20:10;8.83;;;7.50;;
10509;SDS011;5303;53.266;10.410;2023-05-07T00:22:35;9.83;;;6.93;;
10509;SDS011;5303;53.266;10.410;2023-05-07T00:25:00;8.43;;;7.23;;
10509;SDS011;5303;53.266;10.410;2023-05-07T00:27:26;9.00;;;7.20;;
10509;SDS011;5303;53.266;10.410;2023-05-07T00:29:51;8.00;;;6.87;;
10509;SDS011;5303;53.266;10.410;2023-05-07T00:32:16;7.93;;;6.73;;
10509;SDS011;5303;53.266;10.410;2023-05-07T00:34:42;7.63;;;6.50;;
10509;SDS011;5303;53.266;10.410;2023-05-07T00:37:08;8.13;;;6.63;;
10509;SDS011;5303;53.266;10.410;2023-05-07T00:39:34;8.40;;;6.77;;
10509;SDS011;5303;53.266;10.410;2023-05-07T00:42:00;9.73;;;6.63;;
10509;SDS011;5303;53.266;10.410;2023-05-07T00:44:26;8.27;;;7.00;;
10509;SDS011;5303;53.266;10.410;2023-05-07T00:46:51;7.27;;;6.57;;
10509;SDS011;5303;53.266;10.410;2023-05-07T00:49:18;7.40;;;6.57;;
10509;SDS011;5303;53.266;10.410;2023-05-07T00:51:44;8.60;;;7.10;;
10509;SDS011;5303;53.266;10.410;2023-05-07T00:54:10;8.33;;;6.20;;
10509;SDS011;5303;53.266;10.410;2023-05-07T00:56:36;8.07;;;7.00;;
10509;SDS011;5303;53.266;10.410;2023-05-07T00:59:02;7.80;;;7.00;;
10509;SDS011;5303;53.266;10.410;2023-05-07T01:01:28;8.33;;;6.70;;
10509;SDS011;5303;53.266;10.410;2023-05-07T01:03:54;7.60;;;6.80;;
10509;SDS011;5303;53.266;10.410;2023-05-07T01:06:19;7.43;;;6.67;;
10509;SDS011;5303;53.266;10.410;2023-05-07T01:08:47;10.07;;;6.67;;
10509;SDS011;5303;53.266;10.410;2023-05-07T01:11:15;7.20;;;6.03;;
10509;SDS011;5303;53.266;10.410;2023-05-07T01:13:41;7.57;;;6.63;;
10509;SDS011;5303;53.266;10.410;2023-05-07T01:16:08;8.50;;;7.23;;
10509;SDS011;5303;53.266;10.410;2023-05-07T01:18:34;8.17;;;6.97;;
10509;SDS011;5303;53.266;10.410;2023-05-07T01:21:00;8.20;;;7.33;;
10509;SDS011;5303;53.266;10.410;2023-05-07T01:23:28;8.77;;;7.10;;
10509;SDS011;5303;53.266;10.410;2023-05-07T01:25:55;8.40;;;7.27;;
10509;SDS011;5303;53.266;10.410;2023-05-07T01:28:20;7.83;;;6.83;;
10509;SDS011;5303;53.266;10.410;2023-05-07T01:30:53;9.37;;;8.00;;
10509;SDS011;5303;53.266;10.410;2023-05-07T01:33:21;9.17;;;7.40;;
10509;SDS011;5303;53.266;10.410;2023-05-07T01:35:48;8.60;;;7.30;;
10509;SDS011;5303;53.266;10.410;2023-05-07T01:38:17;7.77;;;6.90;;
10509;SDS011;5303;53.266;10.410;2023-05-07T01:40:44;8.60;;;7.70;;
10509;SDS011;5303;53.266;10.410;2023-05-07T01:43:10;8.23;;;7.33;;
10509;SDS011;5303;53.266;10.410;2023-05-07T01:45:35;8.00;;;7.20;;
10509;SDS011;5303;53.266;10.410;2023-05-07T01:48:01;8.37;;;7.50;;
10509;SDS011;5303;53.266;10.410;2023-05-07T01:50:28;7.47;;;6.70;;
10509;SDS011;5303;53.266;10.410;2023-05-07T01:52:54;9.13;;;7.70;;
10509;SDS011;5303;53.266;10.410;2023-05-07T01:55:20;8.70;;;7.80;;
10509;SDS011;5303;53.266;10.410;2023-05-07T01:57:45;8.50;;;7.60;;
10509;SDS011;5303;53.266;10.410;2023-05-07T02:00:11;9.90;;;8.33;;
10509;SDS011;5303;53.266;10.410;2023-05-07T02:02:36;10.13;;;8.37;;
10509;SDS011;5303;53.266;10.410;2023-05-07T02:05:03;10.90;;;9.40;;
10509;SDS011;5303;53.266;10.410;2023-05-07T02:07:29;9.43;;;8.13;;
10509;SDS011;5303;53.266;10.410;2023-05-07T02:09:54;11.37;;;9.10;;
10509;SDS011;5303;53.266;10.410;2023-05-07T02:12:20;10.07;;;8.50;;
10509;SDS011;5303;53.266;10.410;2023-05-07T02:14:46;10.70;;;8.60;;
10509;SDS011;5303;53.266;10.410;2023-05-07T02:17:11;9.77;;;8.13;;
10509;SDS011;5303;53.266;10.410;2023-05-07T02:19:36;9.93;;;8.73;;
10509;SDS011;5303;53.266;10.410;2023-05-07T02:22:01;9.10;;;8.17;;
10509;SDS011;5303;53.266;10.410;2023-05-07T02:24:27;9.77;;;8.43;;
10509;SDS011;5303;53.266;10.410;2023-05-07T02:26:52;10.33;;;8.30;;
10509;SDS011;5303;53.266;10.410;2023-05-07T02:29:17;9.63;;;8.60;;
10509;SDS011;5303;53.266;10.410;2023-05-07T02:31:42;9.43;;;8.20;;
10509;SDS011;5303;53.266;10.410;2023-05-07T02:34:08;8.53;;;7.53;;
10509;SDS011;5303;53.266;10.410;2023-05-07T02:36:33;8.83;;;7.83;;
10509;SDS011;5303;53.266;10.410;2023-05-07T02:38:58;10.93;;;9.10;;
10509;SDS011;5303;53.266;10.410;2023-05-07T02:41:24;14.57;;;9.07;;
10509;SDS011;5303;53.266;10.410;2023-05-07T02:43:49;11.23;;;9.10;;
10509;SDS011;5303;53.266;10.410;2023-05-07T02:46:14;10.57;;;8.87;;
10509;SDS011;5303;53.266;10.410;2023-05-07T02:48:40;11.17;;;9.20;;
10509;SDS011;5303;53.266;10.410;2023-05-07T02:51:05;10.80;;;8.80;;
10509;SDS011;5303;53.266;10.410;2023-05-07T02:53:31;10.73;;;8.77;;
10509;SDS011;5303;53.266;10.410;2023-05-07T02:55:57;9.47;;;8.40;;
10509;SDS011;5303;53.266;10.410;2023-05-07T02:58:23;10.50;;;8.63;;
10509;SDS011;5303;53.266;10.410;2023-05-07T03:00:48;10.83;;;9.00;;
10509;SDS011;5303;53.266;10.410;2023-05-07T03:03:14;11.63;;;8.93;;
10509;SDS011;5303;53.266;10.410;2023-05-07T03:05:40;10.93;;;9.07;;
10509;SDS011;5303;53.266;10.410;2023-05-07T03:08:05;11.17;;;9.47;;
10509;SDS011;5303;53.266;10.410;2023-05-07T03:10:31;10.13;;;8.80;;
10509;SDS011;5303;53.266;10.410;2023-05-07T03:12:56;9.80;;;8.80;;
10509;SDS011;5303;53.266;10.410;2023-05-07T03:15:22;10.63;;;9.20;;
10509;SDS011;5303;53.266;10.410;2023-05-07T03:17:47;10.23;;;8.67;;
10509;SDS011;5303;53.266;10.410;2023-05-07T03:20:13;9.73;;;8.57;;
10509;SDS011;5303;53.266;10.410;2023-05-07T03:22:38;9.87;;;8.83;;
10509;SDS011;5303;53.266;10.410;2023-05-07T03:25:04;11.67;;;9.40;;
10509;SDS011;5303;53.266;10.410;2023-05-07T03:27:30;10.37;;;8.57;;
10509;SDS011;5303;53.266;10.410;2023-05-07T03:29:55;11.03;;;9.80;;
10509;SDS011;5303;53.266;10.410;2023-05-07T03:32:20;10.97;;;8.57;;
10509;SDS011;5303;53.266;10.410;2023-05-07T03:34:46;10.07;;;8.50;;
10509;SDS011;5303;53.266;10.410;2023-05-07T03:37:11;11.60;;;9.37;;
10509;SDS011;5303;53.266;10.410;2023-05-07T03:39:36;12.40;;;9.37;;
10509;SDS011;5303;53.266;10.410;2023-05-07T03:42:01;11.47;;;9.10;;
10509;SDS011;5303;53.266;10.410;2023-05-07T03:44:27;11.77;;;9.57;;
10509;SDS011;5303;53.266;10.410;2023-05-07T03:46:53;11.27;;;9.50;;
10509;SDS011;5303;53.266;10.410;2023-05-07T03:49:18;10.87;;;9.30;;
10509;SDS011;5303;53.266;10.410;2023-05-07T03:51:43;14.60;;;9.60;;
10509;SDS011;5303;53.266;10.410;2023-05-07T03:54:09;12.23;;;9.27;;
10509;SDS011;5303;53.266;10.410;2023-05-07T03:56:34;11.40;;;9.30;;
10509;SDS011;5303;53.266;10.410;2023-05-07T03:59:00;11.30;;;9.50;;
10509;SDS011;5303;53.266;10.410;2023-05-07T04:01:25;11.90;;;9.00;;
10509;SDS011;5303;53.266;10.410;2023-05-07T04:03:51;10.30;;;8.97;;
10509;SDS011;5303;53.266;10.410;2023-05-07T04:06:16;11.70;;;9.30;;
10509;SDS011;5303;53.266;10.410;2023-05-07T04:08:44;11.13;;;9.53;;
10509;SDS011;5303;53.266;10.410;2023-05-07T04:11:09;11.90;;;9.53;;
10509;SDS011;5303;53.266;10.410;2023-05-07T04:13:34;11.47;;;9.20;;
10509;SDS011;5303;53.266;10.410;2023-05-07T04:16:01;12.53;;;8.87;;
10509;SDS011;5303;53.266;10.410;2023-05-07T04:18:27;11.80;;;9.53;;
10509;SDS011;5303;53.266;10.410;2023-05-07T04:20:53;9.93;;;8.83;;
10509;SDS011;5303;53.266;10.410;2023-05-07T04:23:18;12.77;;;9.70;;
10509;SDS011;5303;53.266;10.410;2023-05-07T04:25:43;11.87;;;9.60;;
10509;SDS011;5303;53.266;10.410;2023-05-07T04:28:10;11.97;;;9.80;;
10509;SDS011;5303;53.266;10.410;2023-05-07T04:30:36;10.07;;;8.43;;
10509;SDS011;5303;53.266;10.410;2023-05-07T04:33:01;10.50;;;9.17;;
10509;SDS011;5303;53.266;10.410;2023-05-07T04:35:26;13.53;;;9.93;;
10509;SDS011;5303;53.266;10.410;2023-05-07T04:37:52;12.13;;;8.90;;
10509;SDS011;5303;53.266;10.410;2023-05-07T04:40:17;12.07;;;9.20;;
10509;SDS011;5303;53.266;10.410;2023-05-07T04:42:42;12.63;;;9.40;;
10509;SDS011;5303;53.266;10.410;2023-05-07T04:45:08;13.00;;;9.87;;
10509;SDS011;5303;53.266;10.410;2023-05-07T04:47:35;9.83;;;8.27;;
10509;SDS011;5303;53.266;10.410;2023-05-07T04:50:00;9.77;;;8.37;;
10509;SDS011;5303;53.266;10.410;2023-05-07T04:52:25;11.17;;;8.93;;
10509;SDS011;5303;53.266;10.410;2023-05-07T04:54:51;11.57;;;9.13;;
10509;SDS011;5303;53.266;10.410;2023-05-07T04:57:16;12.23;;;8.33;;
10509;SDS011;5303;53.266;10.410;2023-05-07T04:59:42;10.27;;;8.53;;
10509;SDS011;5303;53.266;10.410;2023-05-07T05:02:09;10.30;;;8.27;;
10509;SDS011;5303;53.266;10.410;2023-05-07T05:04:35;11.60;;;8.23;;
10509;SDS011;5303;53.266;10.410;2023-05-07T05:07:00;10.53;;;7.77;;
10509;SDS011;5303;53.266;10.410;2023-05-07T05:09:25;8.70;;;7.63;;
10509;SDS011;5303;53.266;10.410;2023-05-07T05:11:51;9.13;;;7.73;;
10509;SDS011;5303;53.266;10.410;2023-05-07T05:14:16;9.27;;;7.70;;
10509;SDS011;5303;53.266;10.410;2023-05-07T05:16:41;9.90;;;7.90;;
10509;SDS011;5303;53.266;10.410;2023-05-07T05:19:07;9.97;;;7.93;;
10509;SDS011;5303;53.266;10.410;2023-05-07T05:21:32;10.03;;;7.57;;
10509;SDS011;5303;53.266;10.410;2023-05-07T05:23:57;8.83;;;7.63;;
10509;SDS011;5303;53.266;10.410;2023-05-07T05:26:23;10.87;;;8.00;;
10509;SDS011;5303;53.266;10.410;2023-05-07T05:28:48;9.80;;;7.47;;
10509;SDS011;5303;53.266;10.410;2023-05-07T05:31:13;10.27;;;7.77;;
10509;SDS011;5303;53.266;10.410;2023-05-07T05:33:39;8.80;;;7.90;;
10509;SDS011;5303;53.266;10.410;2023-05-07T05:36:05;9.97;;;8.40;;
10509;SDS011;5303;53.266;10.410;2023-05-07T05:38:31;10.57;;;8.87;;
10509;SDS011;5303;53.266;10.410;2023-05-07T05:40:56;10.33;;;8.20;;
10509;SDS011;5303;53.266;10.410;2023-05-07T05:43:21;10.03;;;8.40;;
10509;SDS011;5303;53.266;10.410;2023-05-07T05:45:47;10.03;;;8.00;;
10509;SDS011;5303;53.266;10.410;2023-05-07T05:48:12;10.00;;;8.40;;
10509;SDS011;5303;53.266;10.410;2023-05-07T05:50:37;10.93;;;7.93;;
10509;SDS011;5303;53.266;10.410;2023-05-07T05:53:02;9.97;;;7.47;;
10509;SDS011;5303;53.266;10.410;2023-05-07T05:55:28;11.00;;;8.40;;
10509;SDS011;5303;53.266;10.410;2023-05-07T05:57:53;11.83;;;8.57;;
10509;SDS011;5303;53.266;10.410;2023-05-07T06:00:19;10.30;;;7.93;;
10509;SDS011;5303;53.266;10.410;2023-05-07T06:02:47;8.97;;;7.57;;
10509;SDS011;5303;53.266;10.410;2023-05-07T06:05:12;9.20;;;7.67;;
10509;SDS011;5303;53.266;10.410;2023-05-07T06:07:37;11.10;;;8.23;;
10509;SDS011;5303;53.266;10.410;2023-05-07T06:10:03;11.63;;;8.30;;
10509;SDS011;5303;53.266;10.410;2023-05-07T06:12:29;10.50;;;8.43;;
10509;SDS011;5303;53.266;10.410;2023-05-07T06:14:54;10.20;;;8.47;;
10509;SDS011;5303;53.266;10.410;2023-05-07T06:17:19;11.50;;;8.53;;
10509;SDS011;5303;53.266;10.410;2023-05-07T06:19:45;10.80;;;8.23;;
10509;SDS011;5303;53.266;10.410;2023-05-07T06:22:10;10.13;;;8.07;;
10509;SDS011;5303;53.266;10.410;2023-05-07T06:24:35;9.73;;;7.87;;
10509;SDS011;5303;53.266;10.410;2023-05-07T06:27:01;9.00;;;7.43;;
10509;SDS011;5303;53.266;10.410;2023-05-07T06:29:26;9.27;;;7.53;;
10509;SDS011;5303;53.266;10.410;2023-05-07T06:31:54;9.73;;;8.00;;
10509;SDS011;5303;53.266;10.410;2023-05-07T06:34:19;8.90;;;7.77;;
10509;SDS011;5303;53.266;10.410;2023-05-07T06:36:45;10.53;;;7.47;;
10509;SDS011;5303;53.266;10.410;2023-05-07T06:39:10;7.50;;;6.70;;
10509;SDS011;5303;53.266;10.410;2023-05-07T06:41:35;9.50;;;7.83;;
10509;SDS011;5303;53.266;10.410;2023-05-07T06:44:01;7.67;;;6.57;;
10509;SDS011;5303;53.266;10.410;2023-05-07T06:46:27;9.20;;;7.20;;
10509;SDS011;5303;53.266;10.410;2023-05-07T06:48:53;9.57;;;6.63;;
10509;SDS011;5303;53.266;10.410;2023-05-07T06:51:19;8.97;;;6.83;;
10509;SDS011;5303;53.266;10.410;2023-05-07T06:53:44;8.53;;;6.90;;
10509;SDS011;5303;53.266;10.410;2023-05-07T06:56:09;9.67;;;7.03;;
10509;SDS011;5303;53.266;10.410;2023-05-07T06:58:35;8.73;;;6.77;;
10509;SDS011;5303;53.266;10.410;2023-05-07T07:01:00;10.60;;;6.70;;
10509;SDS011;5303;53.266;10.410;2023-05-07T07:03:25;7.67;;;5.83;;
10509;SDS011;5303;53.266;10.410;2023-05-07T07:05:51;9.97;;;6.70;;
10509;SDS011;5303;53.266;10.410;2023-05-07T07:08:17;7.53;;;5.90;;
10509;SDS011;5303;53.266;10.410;2023-05-07T07:10:43;7.43;;;6.40;;
10509;SDS011;5303;53.266;10.410;2023-05-07T07:13:08;7.40;;;6.23;;
10509;SDS011;5303;53.266;10.410;2023-05-07T07:15:33;10.07;;;6.40;;
10509;SDS011;5303;53.266;10.410;2023-05-07T07:17:59;8.87;;;6.30;;
10509;SDS011;5303;53.266;10.410;2023-05-07T07:20:24;7.90;;;6.50;;
10509;SDS011;5303;53.266;10.410;2023-05-07T07:22:49;7.10;;;6.40;;
10509;SDS011;5303;53.266;10.410;2023-05-07T07:25:15;7.37;;;5.70;;
10509;SDS011;5303;53.266;10.410;2023-05-07T07:27:40;7.17;;;6.10;;
10509;SDS011;5303;53.266;10.410;2023-05-07T07:30:05;6.80;;;5.87;;
10509;SDS011;5303;53.266;10.410;2023-05-07T07:32:31;7.70;;;6.03;;
10509;SDS011;5303;53.266;10.410;2023-05-07T07:34:58;7.17;;;5.93;;
10509;SDS011;5303;53.266;10.410;2023-05-07T07:37:23;6.87;;;5.60;;
10509;SDS011;5303;53.266;10.410;2023-05-07T07:39:50;6.43;;;5.53;;
10509;SDS011;5303;53.266;10.410;2023-05-07T07:42:15;7.67;;;6.17;;
10509;SDS011;5303;53.266;10.410;2023-05-07T07:44:41;8.07;;;5.50;;
10509;SDS011;5303;53.266;10.410;2023-05-07T07:47:06;6.10;;;5.40;;
10509;SDS011;5303;53.266;10.410;2023-05-07T07:49:32;7.00;;;5.77;;
10509;SDS011;5303;53.266;10.410;2023-05-07T07:51:57;7.10;;;5.50;;
10509;SDS011;5303;53.266;10.410;2023-05-07T07:54:24;7.63;;;5.93;;
10509;SDS011;5303;53.266;10.410;2023-05-07T07:56:49;6.23;;;5.63;;
10509;SDS011;5303;53.266;10.410;2023-05-07T07:59:15;8.27;;;6.17;;
10509;SDS011;5303;53.266;10.410;2023-05-07T08:01:43;5.73;;;5.23;;
10509;SDS011;5303;53.266;10.410;2023-05-07T08:04:09;6.93;;;5.80;;
10509;SDS011;5303;53.266;10.410;2023-05-07T08:06:34;8.00;;;6.20;;
10509;SDS011;5303;53.266;10.410;2023-05-07T08:09:00;7.10;;;6.40;;
10509;SDS011;5303;53.266;10.410;2023-05-07T08:11:25;7.57;;;6.47;;
10509;SDS011;5303;53.266;10.410;2023-05-07T08:13:51;6.97;;;6.20;;
10509;SDS011;5303;53.266;10.410;2023-05-07T08:16:16;6.57;;;5.90;;
10509;SDS011;5303;53.266;10.410;2023-05-07T08:18:42;8.87;;;6.80;;
10509;SDS011;5303;53.266;10.410;2023-05-07T08:21:07;7.13;;;6.43;;
10509;SDS011;5303;53.266;10.410;2023-05-07T08:23:33;8.43;;;6.60;;
10509;SDS011;5303;53.266;10.410;2023-05-07T08:25:59;8.00;;;6.17;;
10509;SDS011;5303;53.266;10.410;2023-05-07T08:28:26;6.80;;;6.03;;
10509;SDS011;5303;53.266;10.410;2023-05-07T08:30:51;7.37;;;6.53;;
10509;SDS011;5303;53.266;10.410;2023-05-07T08:33:16;7.30;;;6.60;;
10509;SDS011;5303;53.266;10.410;2023-05-07T08:35:42;7.63;;;6.90;;
10509;SDS011;5303;53.266;10.410;2023-05-07T08:38:07;6.53;;;5.93;;
10509;SDS011;5303;53.266;10.410;2023-05-07T08:40:35;7.70;;;6.50;;
10509;SDS011;5303;53.266;10.410;2023-05-07T08:43:02;7.40;;;6.17;;
10509;SDS011;5303;53.266;10.410;2023-05-07T08:45:30;7.70;;;6.77;;
10509;SDS011;5303;53.266;10.410;2023-05-07T08:48:04;7.43;;;6.63;;
10509;SDS011;5303;53.266;10.410;2023-05-07T08:50:35;7.17;;;6.47;;
10509;SDS011;5303;53.266;10.410;2023-05-07T08:53:02;9.17;;;6.83;;
10509;SDS011;5303;53.266;10.410;2023-05-07T08:55:28;7.60;;;6.80;;
10509;SDS011;5303;53.266;10.410;2023-05-07T08:57:53;9.20;;;6.80;;
10509;SDS011;5303;53.266;10.410;2023-05-07T09:00:19;9.03;;;6.87;;
10509;SDS011;5303;53.266;10.410;2023-05-07T09:02:44;7.23;;;6.43;;
10509;SDS011;5303;53.266;10.410;2023-05-07T09:05:09;7.10;;;6.40;;
10509;SDS011;5303;53.266;10.410;2023-05-07T09:07:35;8.23;;;6.57;;
10509;SDS011;5303;53.266;10.410;2023-05-07T09:10:03;7.70;;;6.60;;
10509;SDS011;5303;53.266;10.410;2023-05-07T09:12:29;7.50;;;6.50;;
10509;SDS011;5303;53.266;10.410;2023-05-07T09:14:55;7.07;;;6.37;;
10509;SDS011;5303;53.266;10.410;2023-05-07T09:17:20;7.77;;;6.97;;
10509;SDS011;5303;53.266;10.410;2023-05-07T09:19:45;7.90;;;6.70;;
10509;SDS011;5303;53.266;10.410;2023-05-07T09:22:11;8.73;;;6.83;;
10509;SDS011;5303;53.266;10.410;2023-05-07T09:24:37;9.00;;;6.93;;
10509;SDS011;5303;53.266;10.410;2023-05-07T09:27:05;8.63;;;7.17;;
10509;SDS011;5303;53.266;10.410;2023-05-07T09:29:31;8.07;;;7.07;;
10509;SDS011;5303;53.266;10.410;2023-05-07T09:32:04;9.77;;;7.13;;
10509;SDS011;5303;53.266;10.410;2023-05-07T09:34:30;9.43;;;6.77;;
10509;SDS011;5303;53.266;10.410;2023-05-07T09:36:56;7.80;;;6.70;;
10509;SDS011;5303;53.266;10.410;2023-05-07T09:39:23;7.10;;;6.27;;
10509;SDS011;5303;53.266;10.410;2023-05-07T09:41:49;8.73;;;6.00;;
10509;SDS011;5303;53.266;10.410;2023-05-07T09:44:16;7.57;;;6.50;;
10509;SDS011;5303;53.266;10.410;2023-05-07T09:46:43;6.17;;;5.57;;
10509;SDS011;5303;53.266;10.410;2023-05-07T09:49:12;6.97;;;6.20;;
10509;SDS011;5303;53.266;10.410;2023-05-07T09:51:47;8.33;;;6.90;;
10509;SDS011;5303;53.266;10.410;2023-05-07T09:54:15;7.73;;;6.60;;
10509;SDS011;5303;53.266;10.410;2023-05-07T09:56:42;6.80;;;5.87;;
10509;SDS011;5303;53.266;10.410;2023-05-07T09:59:12;7.67;;;6.40;;
10509;SDS011;5303;53.266;10.410;2023-05-07T10:01:40;8.53;;;6.70;;
10509;SDS011;5303;53.266;10.410;2023-05-07T10:04:07;7.57;;;6.47;;
10509;SDS011;5303;53.266;10.410;2023-05-07T10:06:34;6.90;;;6.20;;
10509;SDS011;5303;53.266;10.410;2023-05-07T10:09:00;8.07;;;6.63;;
10509;SDS011;5303;53.266;10.410;2023-05-07T10:11:26;7.57;;;6.77;;
10509;SDS011;5303;53.266;10.410;2023-05-07T10:13:52;8.00;;;6.60;;
10509;SDS011;5303;53.266;10.410;2023-05-07T10:16:18;6.83;;;6.17;;
10509;SDS011;5303;53.266;10.410;2023-05-07T10:18:44;7.67;;;6.40;;
10509;SDS011;5303;53.266;10.410;2023-05-07T10:23:47;7.90;;;6.40;;
10509;SDS011;5303;53.266;10.410;2023-05-07T10:26:15;7.03;;;6.40;;
10509;SDS011;5303;53.266;10.410;2023-05-07T10:28:44;6.83;;;6.23;;
10509;SDS011;5303;53.266;10.410;2023-05-07T10:34:09;6.47;;;5.87;;
10509;SDS011;5303;53.266;10.410;2023-05-07T10:36:38;6.70;;;6.00;;
10509;SDS011;5303;53.266;10.410;2023-05-07T10:39:04;6.60;;;5.50;;
10509;SDS011;5303;53.266;10.410;2023-05-07T10:41:31;6.60;;;5.83;;
10509;SDS011;5303;53.266;10.410;2023-05-07T10:43:56;6.23;;;5.63;;
10509;SDS011;5303;53.266;10.410;2023-05-07T10:46:22;6.47;;;5.63;;
10509;SDS011;5303;53.266;10.410;2023-05-07T10:49:06;7.03;;;5.60;;
10509;SDS011;5303;53.266;10.410;2023-05-07T10:51:32;6.30;;;5.70;;
10509;SDS011;5303;53.266;10.410;2023-05-07T10:56:38;6.63;;;5.93;;
10509;SDS011;5303;53.266;10.410;2023-05-07T11:02:00;6.47;;;5.63;;
10509;SDS011;5303;53.266;10.410;2023-05-07T11:04:31;6.73;;;5.57;;
10509;SDS011;5303;53.266;10.410;2023-05-07T11:15:05;6.47;;;5.77;;
10509;SDS011;5303;53.266;10.410;2023-05-07T11:17:56;6.70;;;5.10;;
10509;SDS011;5303;53.266;10.410;2023-05-07T11:23:54;5.07;;;4.60;;
10509;SDS011;5303;53.266;10.410;2023-05-07T11:26:07;6.23;;;4.83;;
10509;SDS011;5303;53.266;10.410;2023-05-07T11:28:37;5.37;;;4.87;;
10509;SDS011;5303;53.266;10.410;2023-05-07T11:31:04;6.77;;;4.83;;
10509;SDS011;5303;53.266;10.410;2023-05-07T11:33:30;5.10;;;4.57;;
10509;SDS011;5303;53.266;10.410;2023-05-07T11:35:56;5.03;;;4.50;;
10509;SDS011;5303;53.266;10.410;2023-05-07T11:38:22;5.20;;;4.67;;
10509;SDS011;5303;53.266;10.410;2023-05-07T11:40:54;5.93;;;4.53;;
10509;SDS011;5303;53.266;10.410;2023-05-07T11:43:21;6.30;;;4.67;;
10509;SDS011;5303;53.266;10.410;2023-05-07T11:45:46;5.40;;;4.83;;
10509;SDS011;5303;53.266;10.410;2023-05-07T11:48:13;6.07;;;4.60;;
10509;SDS011;5303;53.266;10.410;2023-05-07T11:50:51;4.83;;;4.43;;
10509;SDS011;5303;53.266;10.410;2023-05-07T11:53:17;5.80;;;4.23;;
10509;SDS011;5303;53.266;10.410;2023-05-07T11:55:43;4.70;;;4.23;;
10509;SDS011;5303;53.266;10.410;2023-05-07T11:58:09;4.83;;;4.13;;
10509;SDS011;5303;53.266;10.410;2023-05-07T12:00:36;4.07;;;3.70;;
10509;SDS011;5303;53.266;10.410;2023-05-07T12:03:04;4.93;;;4.10;;
10509;SDS011;5303;53.266;10.410;2023-05-07T12:05:30;4.87;;;4.03;;
10509;SDS011;5303;53.266;10.410;2023-05-07T12:07:58;4.47;;;4.07;;
10509;SDS011;5303;53.266;10.410;2023-05-07T12:10:23;4.00;;;3.60;;
10509;SDS011;5303;53.266;10.410;2023-05-07T12:12:49;4.13;;;3.80;;
10509;SDS011;5303;53.266;10.410;2023-05-07T12:15:16;4.13;;;3.70;;
10509;SDS011;5303;53.266;10.410;2023-05-07T12:17:42;4.20;;;3.80;;
10509;SDS011;5303;53.266;10.410;2023-05-07T12:20:08;3.93;;;3.53;;
10509;SDS011;5303;53.266;10.410;2023-05-07T12:22:34;4.53;;;3.27;;
10509;SDS011;5303;53.266;10.410;2023-05-07T12:25:00;4.67;;;3.50;;
10509;SDS011;5303;53.266;10.410;2023-05-07T12:27:27;4.73;;;3.10;;
10509;SDS011;5303;53.266;10.410;2023-05-07T12:29:52;4.53;;;3.67;;
10509;SDS011;5303;53.266;10.410;2023-05-07T12:32:19;4.83;;;3.80;;
10509;SDS011;5303;53.266;10.410;2023-05-07T12:34:46;4.60;;;4.20;;
10509;SDS011;5303;53.266;10.410;2023-05-07T12:37:14;6.33;;;3.77;;
10509;SDS011;5303;53.266;10.410;2023-05-07T12:39:49;3.97;;;3.53;;
10509;SDS011;5303;53.266;10.410;2023-05-07T12:42:28;4.47;;;3.40;;
10509;SDS011;5303;53.266;10.410;2023-05-07T12:44:58;7.63;;;4.20;;
10509;SDS011;5303;53.266;10.410;2023-05-07T12:47:23;5.03;;;3.43;;
10509;SDS011;5303;53.266;10.410;2023-05-07T12:49:48;4.07;;;3.50;;
10509;SDS011;5303;53.266;10.410;2023-05-07T12:52:14;4.80;;;3.47;;
10509;SDS011;5303;53.266;10.410;2023-05-07T12:54:39;3.57;;;3.27;;
10509;SDS011;5303;53.266;10.410;2023-05-07T12:57:05;3.63;;;3.30;;
10509;SDS011;5303;53.266;10.410;2023-05-07T12:59:33;3.73;;;3.40;;
10509;SDS011;5303;53.266;10.410;2023-05-07T13:01:58;3.50;;;3.20;;
10509;SDS011;5303;53.266;10.410;2023-05-07T13:04:26;3.10;;;2.80;;
10509;SDS011;5303;53.266;10.410;2023-05-07T13:06:52;5.13;;;3.70;;
10509;SDS011;5303;53.266;10.410;2023-05-07T13:09:17;3.57;;;3.20;;
10509;SDS011;5303;53.266;10.410;2023-05-07T13:11:42;3.93;;;3.10;;
10509;SDS011;5303;53.266;10.410;2023-05-07T13:14:07;4.23;;;3.20;;
10509;SDS011;5303;53.266;10.410;2023-05-07T13:16:33;3.73;;;3.03;;
10509;SDS011;5303;53.266;10.410;2023-05-07T13:18:58;3.40;;;3.10;;
10509;SDS011;5303;53.266;10.410;2023-05-07T13:21:23;3.30;;;3.00;;
10509;SDS011;5303;53.266;10.410;2023-05-07T13:23:49;4.13;;;2.80;;
10509;SDS011;5303;53.266;10.410;2023-05-07T13:26:14;4.30;;;2.57;;
10509;SDS011;5303;53.266;10.410;2023-05-07T13:28:39;3.00;;;2.70;;
10509;SDS011;5303;53.266;10.410;2023-05-07T13:31:05;3.20;;;2.90;;
10509;SDS011;5303;53.266;10.410;2023-05-07T13:33:30;4.47;;;2.90;;
10509;SDS011;5303;53.266;10.410;2023-05-07T13:35:55;3.33;;;3.03;;
10509;SDS011;5303;53.266;10.410;2023-05-07T13:38:22;3.67;;;2.97;;
10509;SDS011;5303;53.266;10.410;2023-05-07T13:40:47;3.20;;;2.80;;
10509;SDS011;5303;53.266;10.410;2023-05-07T13:43:12;5.40;;;2.60;;
10509;SDS011;5303;53.266;10.410;2023-05-07T13:45:38;3.30;;;2.57;;
10509;SDS011;5303;53.266;10.410;2023-05-07T13:48:03;3.43;;;2.47;;
10509;SDS011;5303;53.266;10.410;2023-05-07T13:50:28;2.93;;;2.50;;
10509;SDS011;5303;53.266;10.410;2023-05-07T13:52:54;2.70;;;2.43;;
10509;SDS011;5303;53.266;10.410;2023-05-07T13:55:21;4.47;;;2.60;;
10509;SDS011;5303;53.266;10.410;2023-05-07T13:57:47;4.73;;;2.40;;
10509;SDS011;5303;53.266;10.410;2023-05-07T14:00:20;2.60;;;2.40;;
10509;SDS011;5303;53.266;10.410;2023-05-07T14:02:45;4.37;;;2.93;;
10509;SDS011;5303;53.266;10.410;2023-05-07T14:05:10;2.50;;;2.30;;
10509;SDS011;5303;53.266;10.410;2023-05-07T14:07:36;3.70;;;2.53;;
10509;SDS011;5303;53.266;10.410;2023-05-07T14:10:02;2.60;;;2.40;;
10509;SDS011;5303;53.266;10.410;2023-05-07T14:12:27;3.30;;;2.40;;
10509;SDS011;5303;53.266;10.410;2023-05-07T14:14:53;3.03;;;2.70;;
10509;SDS011;5303;53.266;10.410;2023-05-07T14:17:18;3.63;;;2.53;;
10509;SDS011;5303;53.266;10.410;2023-05-07T14:19:44;4.13;;;2.67;;
10509;SDS011;5303;53.266;10.410;2023-05-07T14:22:09;3.60;;;2.53;;
10509;SDS011;5303;53.266;10.410;2023-05-07T14:24:35;2.90;;;2.70;;
10509;SDS011;5303;53.266;10.410;2023-05-07T14:27:01;2.43;;;2.00;;
10509;SDS011;5303;53.266;10.410;2023-05-07T14:29:26;2.77;;;2.10;;
10509;SDS011;5303;53.266;10.410;2023-05-07T14:31:51;2.97;;;2.60;;
10509;SDS011;5303;53.266;10.410;2023-05-07T14:34:16;2.73;;;2.47;;
10509;SDS011;5303;53.266;10.410;2023-05-07T14:36:42;2.60;;;2.40;;
10509;SDS011;5303;53.266;10.410;2023-05-07T14:39:08;2.77;;;2.50;;
10509;SDS011;5303;53.266;10.410;2023-05-07T14:41:34;2.80;;;2.50;;
10509;SDS011;5303;53.266;10.410;2023-05-07T14:43:59;2.47;;;2.27;;
10509;SDS011;5303;53.266;10.410;2023-05-07T14:46:25;3.60;;;2.73;;
10509;SDS011;5303;53.266;10.410;2023-05-07T14:48:50;4.07;;;2.70;;
10509;SDS011;5303;53.266;10.410;2023-05-07T14:51:16;4.13;;;2.60;;
10509;SDS011;5303;53.266;10.410;2023-05-07T14:53:41;3.07;;;2.47;;
10509;SDS011;5303;53.266;10.410;2023-05-07T14:56:07;3.23;;;2.20;;
10509;SDS011;5303;53.266;10.410;2023-05-07T14:58:33;4.13;;;2.40;;
10509;SDS011;5303;53.266;10.410;2023-05-07T15:00:59;3.07;;;2.30;;